Time;durP1;ratioP1;P1;durP2;ratioP2;P2;SDS_P1;SDS_P2;PMS_P1;PMS_P2;Temp;Humidity;BMP_temperature;BMP_pressure;BME280_temperature;BME280_humidity;BME280_pressure;Samples;Min_cycle;Max_cycle;Signal;HPM_P1;HPM_P2
2023/09/09 00:00:46;;;;;;;0.00;0.00;;;;;;;29.97;50.12;101620.19;5063845;28;20051;-66
2023/09/09 00:03:12;;;;;;;0.00;0.00;;;;;;;29.83;50.63;101625.97;5062484;28;20029;-65
2023/09/09 00:05:37;;;;;;;0.00;0.00;;;;;;;29.96;49.82;101624.09;5061081;28;20039;-66
2023/09/09 00:08:03;;;;;;;0.00;0.00;;;;;;;29.92;49.92;101625.91;5062793;28;20488;-64
2023/09/09 00:10:29;;;;;;;0.00;0.00;;;;;;;29.71;50.21;101625.03;5062142;28;20628;-64
2023/09/09 00:12:57;;;;;;;0.00;0.00;;;;;;;29.89;50.22;101621.03;5064167;28;20041;-64
2023/09/09 00:15:22;;;;;;;0.00;0.00;;;;;;;29.89;49.87;101627.41;5069835;28;20037;-66
2023/09/09 00:17:48;;;;;;;0.00;0.00;;;;;;;29.74;50.68;101629.94;5071965;28;20040;-65
2023/09/09 00:20:14;;;;;;;0.00;0.00;;;;;;;29.78;50.46;101626.16;5069515;28;20025;-65
2023/09/09 00:22:40;;;;;;;0.00;0.00;;;;;;;29.78;50.22;101617.84;5071316;28;20025;-67
2023/09/09 00:25:06;;;;;;;0.00;0.00;;;;;;;29.96;49.85;101615.75;5071607;28;20052;-66
2023/09/09 00:27:32;;;;;;;0.00;0.00;;;;;;;29.99;50.22;101613.16;5070221;28;20040;-65
2023/09/09 00:29:57;;;;;;;0.00;0.00;;;;;;;29.93;50.50;101611.72;5071379;28;20670;-65
2023/09/09 00:32:24;;;;;;;0.00;0.00;;;;;;;30.03;50.05;101616.88;5071369;28;20118;-66
2023/09/09 00:34:49;;;;;;;0.00;0.00;;;;;;;29.95;50.59;101608.63;5072284;28;20406;-63
2023/09/09 00:37:15;;;;;;;0.00;0.00;;;;;;;29.86;50.70;101613.38;5071143;28;20041;-65
2023/09/09 00:39:40;;;;;;;0.00;0.00;;;;;;;29.81;50.98;101613.59;5075856;28;20443;-66
2023/09/09 00:42:06;;;;;;;0.00;0.00;;;;;;;29.82;51.33;101616.03;5071126;28;20036;-65
2023/09/09 00:44:31;;;;;;;0.00;0.00;;;;;;;29.94;51.08;101615.28;5071275;28;20071;-65
2023/09/09 00:46:58;;;;;;;0.00;0.00;;;;;;;29.96;50.75;101611.03;5071811;28;20353;-66
2023/09/09 00:49:23;;;;;;;0.00;0.00;;;;;;;29.90;51.10;101617.94;5071515;28;20040;-66
2023/09/09 00:51:49;;;;;;;0.00;0.00;;;;;;;29.93;50.58;101611.72;5053092;28;20052;-65
2023/09/09 00:54:15;;;;;;;0.00;0.00;;;;;;;29.87;50.86;101615.03;5070041;28;20052;-66
2023/09/09 00:56:41;;;;;;;0.00;0.00;;;;;;;29.94;50.78;101618.06;5070054;28;20135;-66
2023/09/09 00:59:07;;;;;;;0.00;0.00;;;;;;;29.91;50.98;101618.75;5086173;28;20400;-65
2023/09/09 01:01:32;;;;;;;0.00;0.00;;;;;;;29.83;50.69;101617.66;5070295;28;20029;-65
2023/09/09 01:03:59;;;;;;;0.00;0.00;;;;;;;29.76;50.93;101613.81;5070359;28;20084;-64
2023/09/09 01:06:25;;;;;;;0.00;0.00;;;;;;;29.65;51.23;101621.66;5070377;28;20036;-65
2023/09/09 01:08:50;;;;;;;0.00;0.00;;;;;;;29.62;50.79;101613.19;5070210;28;20159;-65
2023/09/09 01:11:16;;;;;;;0.00;0.00;;;;;;;29.52;51.48;101615.19;5070307;28;20762;-65
2023/09/09 01:13:41;;;;;;;0.00;0.00;;;;;;;29.49;51.38;101615.88;5051943;28;20053;-66
2023/09/09 01:16:07;;;;;;;0.00;0.00;;;;;;;29.38;51.78;101613.81;5070647;28;20044;-65
2023/09/09 01:18:34;;;;;;;0.00;0.00;;;;;;;29.54;50.98;101614.06;5069643;28;20380;-66
2023/09/09 01:21:04;;;;;;;0.00;0.00;;;;;;;29.36;51.17;101605.84;5069871;28;20151;-65
2023/09/09 01:23:30;;;;;;;0.00;0.00;;;;;;;29.30;50.98;101609.09;5070036;28;20050;-65
2023/09/09 01:25:55;;;;;;;0.00;0.00;;;;;;;29.21;51.72;101611.09;5070794;28;20020;-65
2023/09/09 01:28:22;;;;;;;0.00;0.00;;;;;;;29.26;51.42;101606.19;5070335;28;20051;-65
2023/09/09 01:30:48;;;;;;;0.00;0.00;;;;;;;29.17;51.38;101604.63;5070517;28;20550;-64
2023/09/09 01:33:14;;;;;;;0.00;0.00;;;;;;;29.23;51.78;101600.50;5070346;28;20128;-66
2023/09/09 01:35:39;;;;;;;0.00;0.00;;;;;;;29.23;51.42;101604.06;5088503;28;20036;-65
2023/09/09 01:38:05;;;;;;;0.00;0.00;;;;;;;29.14;51.41;101605.25;5091075;28;20039;-65
2023/09/09 01:40:30;;;;;;;0.00;0.00;;;;;;;29.18;51.75;101611.75;5090720;28;20537;-66
2023/09/09 01:42:55;;;;;;;0.00;0.00;;;;;;;28.96;52.21;101610.00;5085189;28;20467;-65
2023/09/09 01:45:21;;;;;;;0.00;0.00;;;;;;;28.98;52.10;101606.91;5087014;28;20032;-66
2023/09/09 01:47:46;;;;;;;0.00;0.00;;;;;;;29.15;51.88;101615.19;5090906;28;20024;-65
2023/09/09 01:50:12;;;;;;;0.00;0.00;;;;;;;29.00;52.27;101615.69;5084107;28;20019;-66
2023/09/09 01:52:37;;;;;;;0.00;0.00;;;;;;;29.27;51.92;101607.81;5070115;28;20135;-65
2023/09/09 01:55:03;;;;;;;0.00;0.00;;;;;;;29.21;51.27;101611.91;5069858;28;20049;-66
2023/09/09 01:57:29;;;;;;;0.00;0.00;;;;;;;29.09;51.93;101610.97;5069924;28;20036;-66
2023/09/09 01:59:56;;;;;;;0.00;0.00;;;;;;;29.37;50.97;101612.16;5070353;28;20033;-65
2023/09/09 02:02:21;;;;;;;0.00;0.00;;;;;;;29.25;51.45;101612.88;5070149;28;20048;-66
2023/09/09 02:04:47;;;;;;;0.00;0.00;;;;;;;29.29;51.15;101611.06;5070722;28;20020;-65
2023/09/09 02:07:12;;;;;;;0.00;0.00;;;;;;;29.42;51.24;101610.00;5070250;28;20453;-65
2023/09/09 02:09:38;;;;;;;0.00;0.00;;;;;;;29.47;50.95;101612.63;5070153;28;20029;-65
2023/09/09 02:12:03;;;;;;;0.00;0.00;;;;;;;29.28;51.41;101614.16;5069592;28;20028;-65
2023/09/09 02:14:33;;;;;;;0.00;0.00;;;;;;;29.25;52.03;101614.81;5058594;28;20040;-64
2023/09/09 02:16:58;;;;;;;0.00;0.00;;;;;;;29.31;51.48;101610.72;5052360;28;20448;-65
2023/09/09 02:19:24;;;;;;;0.00;0.00;;;;;;;29.29;51.30;101615.78;5069701;28;20198;-65
2023/09/09 02:21:50;;;;;;;0.00;0.00;;;;;;;29.26;51.01;101608.97;5069897;28;20730;-66
2023/09/09 02:24:15;;;;;;;0.00;0.00;;;;;;;29.34;51.27;101610.06;5070022;28;20029;-65
2023/09/09 02:26:41;;;;;;;0.00;0.00;;;;;;;29.22;51.24;101601.66;5069705;28;20523;-65
2023/09/09 02:29:06;;;;;;;0.00;0.00;;;;;;;29.02;51.64;101602.34;5070120;28;20037;-66
2023/09/09 02:31:32;;;;;;;0.00;0.00;;;;;;;29.04;51.19;101613.88;5084557;28;20040;-65
2023/09/09 02:33:57;;;;;;;0.00;0.00;;;;;;;29.06;51.51;101608.84;5090089;28;20028;-65
2023/09/09 02:36:22;;;;;;;0.00;0.00;;;;;;;29.05;51.14;101602.47;5089937;28;20048;-65
2023/09/09 02:38:48;;;;;;;0.00;0.00;;;;;;;28.75;51.52;101600.78;5088492;28;20028;-65
2023/09/09 02:41:13;;;;;;;0.00;0.00;;;;;;;28.64;52.66;101588.41;5070254;28;20098;-66
2023/09/09 02:43:39;;;;;;;0.00;0.00;;;;;;;28.44;52.79;101586.31;5051158;28;20036;-65
2023/09/09 02:46:04;;;;;;;0.00;0.00;;;;;;;28.56;52.15;101586.47;5069651;28;20081;-65
2023/09/09 02:48:30;;;;;;;0.00;0.00;;;;;;;28.50;52.53;101587.78;5069863;28;20032;-65
2023/09/09 02:50:56;;;;;;;0.00;0.00;;;;;;;28.67;52.24;101584.19;5071052;28;20093;-66
2023/09/09 02:53:21;;;;;;;0.00;0.00;;;;;;;28.72;51.47;101578.50;5073686;28;20033;-65
2023/09/09 02:55:47;;;;;;;0.00;0.00;;;;;;;28.78;51.79;101583.50;5074024;28;20036;-65
2023/09/09 02:58:14;;;;;;;0.00;0.00;;;;;;;28.87;50.96;101586.28;5073570;28;20036;-65
2023/09/09 03:00:39;;;;;;;0.00;0.00;;;;;;;28.97;51.02;101583.94;5073466;28;20037;-66
2023/09/09 03:03:05;;;;;;;0.00;0.00;;;;;;;28.90;51.00;101591.94;5089071;28;20043;-65
2023/09/09 03:05:35;;;;;;;0.00;0.00;;;;;;;28.80;51.21;101591.47;5073690;28;20044;-65
2023/09/09 03:08:02;;;;;;;0.00;0.00;;;;;;;28.81;51.27;101598.66;5074180;28;20107;-66
2023/09/09 03:10:27;;;;;;;0.00;0.00;;;;;;;28.83;50.88;101590.84;5073503;28;20059;-66
2023/09/09 03:12:53;;;;;;;0.00;0.00;;;;;;;28.97;51.25;101595.00;5073079;28;20037;-65
2023/09/09 03:15:18;;;;;;;0.00;0.00;;;;;;;28.70;50.77;101589.88;5073236;28;20116;-66
2023/09/09 03:17:43;;;;;;;0.00;0.00;;;;;;;28.78;51.19;101586.28;5073160;28;20049;-66
2023/09/09 03:20:10;;;;;;;0.00;0.00;;;;;;;28.81;50.65;101585.63;5073555;28;20038;-66
2023/09/09 03:22:35;;;;;;;0.00;0.00;;;;;;;28.90;50.97;101588.34;5072949;28;20063;-66
2023/09/09 03:25:00;;;;;;;0.00;0.00;;;;;;;28.84;51.05;101589.69;5073095;28;20033;-66
2023/09/09 03:27:26;;;;;;;0.00;0.00;;;;;;;28.76;50.78;101587.75;5084781;28;20036;-66
2023/09/09 03:29:51;;;;;;;0.00;0.00;;;;;;;28.43;51.67;101587.44;5093289;28;20032;-65
2023/09/09 03:32:17;;;;;;;0.00;0.00;;;;;;;28.33;52.05;101585.00;5092999;28;20031;-65
2023/09/09 03:34:43;;;;;;;0.00;0.00;;;;;;;28.45;52.10;101582.41;5075263;28;20498;-66
2023/09/09 03:37:08;;;;;;;0.00;0.00;;;;;;;28.26;52.76;101587.47;5073756;28;20029;-66
2023/09/09 03:39:34;;;;;;;0.00;0.00;;;;;;;28.25;52.53;101594.13;5072776;28;20403;-66
2023/09/09 03:41:59;;;;;;;0.00;0.00;;;;;;;28.25;52.26;101589.41;5072598;28;20041;-65
2023/09/09 03:44:24;;;;;;;0.00;0.00;;;;;;;28.30;52.26;101588.44;5072453;28;20032;-65
2023/09/09 03:46:50;;;;;;;0.00;0.00;;;;;;;28.07;52.92;101592.50;5073179;28;20032;-65
2023/09/09 03:49:15;;;;;;;0.00;0.00;;;;;;;28.32;52.12;101597.22;5072632;28;20059;-65
2023/09/09 03:51:41;;;;;;;0.00;0.00;;;;;;;28.24;52.17;101600.78;5072706;28;20040;-65
2023/09/09 03:54:06;;;;;;;0.00;0.00;;;;;;;28.27;52.38;101595.44;5072104;28;20035;-65
2023/09/09 03:56:32;;;;;;;0.00;0.00;;;;;;;28.20;52.70;101588.75;5072733;28;20032;-66
2023/09/09 03:58:57;;;;;;;0.00;0.00;;;;;;;28.10;52.44;101589.91;5072846;28;20488;-66
2023/09/09 04:01:23;;;;;;;0.00;0.00;;;;;;;28.10;52.33;101589.06;5061282;28;20092;-65
2023/09/09 04:03:48;;;;;;;0.00;0.00;;;;;;;28.03;52.60;101592.31;5031045;28;20367;-65
2023/09/09 04:06:16;;;;;;;0.00;0.00;;;;;;;28.07;52.84;101593.28;5035521;28;20037;-67
2023/09/09 04:08:41;;;;;;;0.00;0.00;;;;;;;27.92;52.62;101593.75;5048116;28;20214;-65
2023/09/09 04:11:07;;;;;;;0.00;0.00;;;;;;;27.99;51.75;101590.53;5038233;28;20033;-65
2023/09/09 04:13:37;;;;;;;0.00;0.00;;;;;;;27.92;52.47;101595.69;5051706;28;20397;-65
2023/09/09 04:16:02;;;;;;;0.00;0.00;;;;;;;27.88;53.15;101595.53;5052123;28;20048;-66
2023/09/09 04:18:28;;;;;;;0.00;0.00;;;;;;;27.73;52.53;101591.25;5053528;28;20117;-65
2023/09/09 04:20:54;;;;;;;0.00;0.00;;;;;;;27.83;52.54;101590.16;5072120;28;20033;-65
2023/09/09 04:23:19;;;;;;;0.00;0.00;;;;;;;27.61;52.78;101588.34;5062831;28;20104;-65
2023/09/09 04:25:45;;;;;;;0.00;0.00;;;;;;;27.71;53.22;101584.44;5052700;28;20029;-66
2023/09/09 04:28:12;;;;;;;0.03;0.03;;;;;;;27.65;52.88;101588.50;5051572;28;20524;-65
2023/09/09 04:30:38;;;;;;;0.00;0.00;;;;;;;27.70;52.95;101583.63;5052045;28;20409;-65
2023/09/09 04:33:06;;;;;;;0.00;0.00;;;;;;;27.66;53.56;101596.47;5051441;28;20049;-65
2023/09/09 04:35:31;;;;;;;0.00;0.00;;;;;;;27.66;52.98;101595.63;5051675;28;20051;-65
2023/09/09 04:37:56;;;;;;;0.00;0.00;;;;;;;27.82;52.75;101594.06;5052517;28;20024;-65
2023/09/09 04:40:22;;;;;;;0.00;0.00;;;;;;;27.79;52.60;101594.72;5051574;28;20048;-65
2023/09/09 04:42:47;;;;;;;0.00;0.00;;;;;;;27.90;52.16;101596.00;5051553;28;20044;-66
2023/09/09 04:45:12;;;;;;;0.00;0.00;;;;;;;27.74;52.38;101601.19;5066719;28;20036;-66
2023/09/09 04:47:38;;;;;;;0.00;0.00;;;;;;;27.62;53.03;101600.16;5071579;28;20420;-65
2023/09/09 04:50:04;;;;;;;0.00;0.00;;;;;;;27.65;52.85;101608.66;5071832;28;20032;-66
2023/09/09 04:52:29;;;;;;;0.00;0.00;;;;;;;27.52;52.96;101606.81;5052783;28;20530;-65
2023/09/09 04:54:54;;;;;;;0.00;0.00;;;;;;;27.48;53.28;101610.53;5078236;28;20048;-66
2023/09/09 04:57:20;;;;;;;0.00;0.00;;;;;;;27.49;52.83;101618.50;5091270;28;20039;-66
2023/09/09 04:59:45;;;;;;;0.00;0.00;;;;;;;27.63;52.79;101610.94;5091077;28;20031;-67
2023/09/09 05:02:11;;;;;;;0.00;0.00;;;;;;;27.65;53.21;101605.91;5066321;28;20025;-67
2023/09/09 05:04:36;;;;;;;0.00;0.00;;;;;;;27.53;52.83;101625.03;5070565;28;20035;-66
2023/09/09 05:07:03;;;;;;;0.00;0.00;;;;;;;27.43;53.35;101614.25;5071002;28;20047;-66
2023/09/09 05:09:28;;;;;;;0.00;0.00;;;;;;;27.40;54.52;101608.56;5071030;28;20047;-66
2023/09/09 05:11:54;;;;;;;0.00;0.00;;;;;;;27.59;53.90;101623.75;5070648;28;20029;-66
2023/09/09 05:14:19;;;;;;;0.00;0.00;;;;;;;27.50;54.01;101611.84;5070021;28;20024;-65
2023/09/09 05:16:44;;;;;;;0.00;0.00;;;;;;;27.67;53.57;101613.84;5071020;28;20484;-65
2023/09/09 05:19:10;;;;;;;0.00;0.00;;;;;;;27.56;53.51;101613.31;5073440;28;20085;-65
2023/09/09 05:21:35;;;;;;;0.00;0.00;;;;;;;27.49;53.55;101626.78;5086080;28;20819;-65
2023/09/09 05:24:01;;;;;;;0.00;0.00;;;;;;;27.64;53.50;101620.00;5051901;28;20048;-66
2023/09/09 05:26:26;;;;;;;0.00;0.00;;;;;;;27.52;53.65;101615.09;5070482;28;20036;-65
2023/09/09 05:28:51;;;;;;;0.00;0.00;;;;;;;27.50;53.34;101622.88;5070459;28;20055;-66
2023/09/09 05:31:17;;;;;;;0.00;0.00;;;;;;;27.75;53.19;101615.81;5070382;28;20064;-65
2023/09/09 05:33:43;;;;;;;0.00;0.00;;;;;;;27.35;54.29;101626.06;5070502;28;20036;-66
2023/09/09 05:36:09;;;;;;;0.00;0.00;;;;;;;27.44;53.67;101621.41;5070194;28;20496;-66
2023/09/09 05:38:35;;;;;;;0.00;0.00;;;;;;;27.42;53.97;101620.91;5070539;28;20365;-67
2023/09/09 05:41:01;;;;;;;0.00;0.00;;;;;;;27.27;54.58;101626.81;5070813;28;20025;-65
2023/09/09 05:43:26;;;;;;;0.00;0.00;;;;;;;27.26;54.04;101624.38;5070549;28;20653;-66
2023/09/09 05:45:53;;;;;;;0.00;0.00;;;;;;;27.36;53.89;101627.69;5090316;28;20036;-65
2023/09/09 05:48:18;;;;;;;0.00;0.00;;;;;;;27.35;53.74;101623.31;5090268;28;20127;-66
2023/09/09 05:50:44;;;;;;;0.00;0.00;;;;;;;27.58;52.76;101622.09;5090305;28;20050;-66
2023/09/09 05:53:10;;;;;;;0.00;0.00;;;;;;;27.84;52.32;101619.41;5090911;28;20071;-66
2023/09/09 05:55:36;;;;;;;0.00;0.00;;;;;;;28.24;51.50;101631.22;5090082;28;20460;-66
2023/09/09 05:58:02;;;;;;;0.00;0.00;;;;;;;28.10;52.58;101631.34;5090027;28;20050;-65
2023/09/09 06:00:27;;;;;;;0.00;0.00;;;;;;;28.07;51.83;101629.22;5090360;28;20534;-66
2023/09/09 06:02:52;;;;;;;0.00;0.00;;;;;;;28.29;51.79;101642.09;5090246;28;20035;-67
2023/09/09 06:05:18;;;;;;;0.00;0.00;;;;;;;28.23;52.89;101635.09;5089899;28;20510;-66
2023/09/09 06:07:44;;;;;;;0.00;0.00;;;;;;;28.32;52.44;101639.50;5090101;28;20380;-66
2023/09/09 06:10:09;;;;;;;0.00;0.00;;;;;;;28.08;53.32;101646.63;5089582;28;20051;-67
2023/09/09 06:12:35;;;;;;;0.00;0.00;;;;;;;28.16;54.18;101656.88;5089742;28;20040;-67
2023/09/09 06:15:00;;;;;;;0.00;0.00;;;;;;;28.26;53.85;101660.16;5085883;28;20028;-69
2023/09/09 06:17:26;;;;;;;0.00;0.00;;;;;;;28.07;54.58;101665.16;5051017;28;20055;-67
2023/09/09 06:19:51;;;;;;;0.00;0.00;;;;;;;27.52;57.10;101661.22;5050996;28;20036;-67
2023/09/09 06:22:16;;;;;;;0.00;0.00;;;;;;;26.97;60.27;101669.00;5050920;28;20044;-68
2023/09/09 06:24:42;;;;;;;0.00;0.00;;;;;;;27.32;59.37;101664.53;5068519;28;20036;-66
2023/09/09 06:27:08;;;;;;;0.00;0.00;;;;;;;27.20;60.20;101669.81;5068637;28;20028;-66
2023/09/09 06:29:34;;;;;;;0.00;0.00;;;;;;;27.22;60.62;101671.13;5068689;28;20040;-67
2023/09/09 06:31:59;;;;;;;0.00;0.00;;;;;;;27.82;58.05;101671.41;5069253;28;20020;-66
2023/09/09 06:34:25;;;;;;;0.00;0.00;;;;;;;28.10;57.57;101663.72;5068815;28;20519;-67
2023/09/09 06:36:51;;;;;;;0.00;0.00;;;;;;;28.02;58.73;101668.09;5069459;28;20069;-65
2023/09/09 06:39:16;;;;;;;0.10;0.10;;;;;;;28.15;58.22;101664.34;5069869;28;20032;-66
2023/09/09 06:41:41;;;;;;;0.00;0.00;;;;;;;28.60;56.84;101665.72;5069753;28;20681;-67
2023/09/09 06:44:07;;;;;;;0.00;0.00;;;;;;;28.82;56.12;101666.66;5076264;28;20081;-65
2023/09/09 06:46:33;;;;;;;0.00;0.00;;;;;;;28.60;56.46;101668.50;5089983;28;20036;-68
2023/09/09 06:48:59;;;;;;;0.00;0.00;;;;;;;28.48;57.15;101667.50;5084267;28;20043;-65
2023/09/09 06:51:25;;;;;;;0.00;0.00;;;;;;;28.49;56.88;101669.13;5069285;28;20033;-65
2023/09/09 06:53:50;;;;;;;0.00;0.00;;;;;;;28.50;57.28;101676.28;5069583;28;20032;-66
2023/09/09 06:56:16;;;;;;;0.00;0.00;;;;;;;27.92;59.56;101676.66;5069636;28;20504;-67
2023/09/09 06:58:41;;;;;;;0.00;0.00;;;;;;;27.77;60.22;101679.84;5069208;28;20040;-65
2023/09/09 07:01:07;;;;;;;0.00;0.00;;;;;;;28.21;58.78;101676.91;5069351;28;20055;-65
2023/09/09 07:03:32;;;;;;;0.00;0.00;;;;;;;28.71;57.53;101679.22;5068888;28;20039;-66
2023/09/09 07:05:59;;;;;;;0.00;0.00;;;;;;;28.47;58.22;101679.69;5068561;28;20048;-66
2023/09/09 07:08:25;;;;;;;0.00;0.00;;;;;;;28.46;58.12;101687.16;5068685;28;20029;-66
2023/09/09 07:10:51;;;;;;;0.00;0.00;;;;;;;28.38;58.69;101695.47;5069157;28;20046;-65
2023/09/09 07:13:17;;;;;;;0.00;0.00;;;;;;;28.01;60.12;101702.38;5070751;28;20036;-66
2023/09/09 07:15:43;;;;;;;0.03;0.00;;;;;;;28.44;58.49;101694.97;5068643;28;20039;-66
2023/09/09 07:18:08;;;;;;;0.00;0.00;;;;;;;28.86;57.29;101692.56;5068636;28;20040;-66
2023/09/09 07:20:33;;;;;;;0.00;0.00;;;;;;;28.53;58.90;101690.28;5068202;28;20032;-67
2023/09/09 07:22:59;;;;;;;0.00;0.00;;;;;;;28.50;58.88;101699.19;5069262;28;20032;-66
2023/09/09 07:25:24;;;;;;;0.00;0.00;;;;;;;28.94;57.30;101705.56;5068821;28;20039;-67
2023/09/09 07:27:50;;;;;;;0.00;0.00;;;;;;;28.35;58.96;101694.16;5068122;28;20608;-65
2023/09/09 07:30:15;;;;;;;0.00;0.00;;;;;;;28.52;58.80;101694.16;5068275;28;20040;-67
2023/09/09 07:32:41;;;;;;;0.08;0.08;;;;;;;28.26;60.36;101695.28;5067490;28;20049;-66
2023/09/09 07:35:07;;;;;;;0.00;0.00;;;;;;;29.02;57.98;101693.69;5068791;28;20353;-66
2023/09/09 07:37:33;;;;;;;0.00;0.00;;;;;;;28.68;59.15;101700.06;5070663;28;20063;-66
2023/09/09 07:39:58;;;;;;;0.00;0.00;;;;;;;28.93;57.97;101706.72;5071886;28;20044;-66
2023/09/09 07:42:24;;;;;;;0.00;0.00;;;;;;;29.40;57.23;101700.94;5071620;28;20052;-66
2023/09/09 07:44:50;;;;;;;0.00;0.00;;;;;;;29.03;58.04;101701.66;5053350;28;20028;-66
2023/09/09 07:47:16;;;;;;;0.00;0.00;;;;;;;29.46;57.01;101701.59;5072344;28;20473;-67
2023/09/09 07:49:41;;;;;;;0.00;0.00;;;;;;;28.53;60.63;101698.56;5070815;28;20185;-66
2023/09/09 07:52:07;;;;;;;0.00;0.00;;;;;;;29.40;58.15;101702.91;5071680;28;20082;-66
2023/09/09 07:54:32;;;;;;;0.00;0.00;;;;;;;29.42;58.06;101715.25;5067683;28;20845;-64
2023/09/09 07:57:02;;;;;;;0.00;0.00;;;;;;;29.41;58.22;101712.84;5051569;28;20502;-66
2023/09/09 07:59:29;;;;;;;0.00;0.00;;;;;;;29.49;58.17;101714.75;5048422;28;20596;-66
2023/09/09 08:01:55;;;;;;;0.00;0.00;;;;;;;28.72;61.23;101717.63;5057125;28;20380;-66
2023/09/09 08:04:20;;;;;;;0.00;0.00;;;;;;;29.76;57.70;101721.88;5053830;28;20021;-67
2023/09/09 08:06:46;;;;;;;0.00;0.00;;;;;;;28.74;61.44;101712.59;5051557;28;20590;-66
2023/09/09 08:09:13;;;;;;;0.00;0.00;;;;;;;29.20;59.66;101711.91;5052327;28;20044;-64
2023/09/09 08:11:38;;;;;;;0.00;0.00;;;;;;;29.02;60.91;101713.88;5038578;28;20046;-66
2023/09/09 08:14:03;;;;;;;0.00;0.00;;;;;;;29.44;59.42;101721.28;5051430;28;20017;-67
2023/09/09 08:16:30;;;;;;;0.00;0.00;;;;;;;29.63;59.11;101718.16;5030664;28;20041;-67
2023/09/09 08:18:56;;;;;;;0.00;0.00;;;;;;;29.65;58.65;101724.16;5053067;28;20032;-66
2023/09/09 08:21:21;;;;;;;0.00;0.00;;;;;;;28.44;62.80;101738.44;5063781;28;20033;-67
2023/09/09 08:23:46;;;;;;;0.00;0.00;;;;;;;29.31;60.92;101719.53;5055530;28;20029;-67
2023/09/09 08:26:12;;;;;;;0.00;0.00;;;;;;;30.26;58.45;101731.88;5051623;28;20039;-67
2023/09/09 08:28:37;;;;;;;0.00;0.00;;;;;;;29.66;60.14;101727.75;5039344;28;20032;-67
2023/09/09 08:31:03;;;;;;;0.00;0.00;;;;;;;29.77;59.60;101737.34;5038984;28;20044;-65
2023/09/09 08:33:28;;;;;;;0.00;0.00;;;;;;;30.64;57.33;101737.34;5051839;28;20500;-66
2023/09/09 08:36:03;;;;;;;0.00;0.00;;;;;;;30.33;57.90;101739.69;5051612;28;20048;-66
2023/09/09 08:38:28;;;;;;;0.00;0.00;;;;;;;30.34;57.84;101735.78;5053343;28;20167;-67
2023/09/09 08:41:06;;;;;;;0.00;0.00;;;;;;;30.29;58.14;101735.94;5057089;28;20048;-67
2023/09/09 08:43:56;;;;;;;0.00;0.00;;;;;;;30.01;59.05;101737.56;5044056;28;20061;-67
2023/09/09 08:46:22;;;;;;;0.00;0.00;;;;;;;30.42;57.97;101743.22;5053505;28;20111;-67
2023/09/09 08:48:52;;;;;;;0.00;0.00;;;;;;;30.59;57.43;101751.41;5052878;28;20040;-66
2023/09/09 08:51:19;;;;;;;0.00;0.00;;;;;;;30.36;58.13;101752.06;5065053;28;20040;-67
2023/09/09 08:53:46;;;;;;;0.00;0.00;;;;;;;30.63;56.99;101751.56;5046632;28;20037;-66
2023/09/09 08:56:13;;;;;;;0.00;0.00;;;;;;;30.45;57.88;101763.94;5067063;28;20067;-65
2023/09/09 08:58:40;;;;;;;0.00;0.00;;;;;;;29.91;59.24;101757.34;5071136;28;20045;-67
2023/09/09 09:01:06;;;;;;;0.00;0.00;;;;;;;30.81;56.82;101759.41;5070867;28;20044;-68
2023/09/09 09:03:33;;;;;;;0.00;0.00;;;;;;;30.77;56.98;101758.47;5071178;28;20040;-67
2023/09/09 09:06:01;;;;;;;0.00;0.00;;;;;;;30.21;58.61;101753.44;5091349;28;20054;-66
2023/09/09 09:08:27;;;;;;;0.00;0.00;;;;;;;30.32;57.59;101757.50;5091377;28;20417;-66
2023/09/09 09:10:55;;;;;;;0.00;0.00;;;;;;;31.23;54.86;101754.66;5091870;28;20028;-68
2023/09/09 09:13:21;;;;;;;0.00;0.00;;;;;;;31.35;55.05;101762.22;5064312;28;20038;-67
2023/09/09 09:15:46;;;;;;;0.00;0.00;;;;;;;30.68;56.95;101765.25;5070598;28;20423;-67
2023/09/09 09:18:12;;;;;;;0.00;0.00;;;;;;;31.48;55.25;101763.91;5070874;28;20040;-67
2023/09/09 09:20:40;;;;;;;0.00;0.00;;;;;;;31.82;53.82;101757.94;5070716;28;20396;-67
2023/09/09 09:23:05;;;;;;;0.00;0.00;;;;;;;31.04;55.99;101774.59;5070911;28;20020;-66
2023/09/09 09:25:44;;;;;;;0.00;0.00;;;;;;;31.74;54.29;101768.03;5070914;28;20546;-66
2023/09/09 09:28:11;;;;;;;0.00;0.00;;;;;;;31.85;53.60;101768.38;5074195;28;20147;-67
2023/09/09 09:30:37;;;;;;;0.00;0.00;;;;;;;31.85;53.38;101762.81;5079945;28;20040;-67
2023/09/09 09:33:03;;;;;;;0.00;0.00;;;;;;;32.14;52.35;101764.59;5054195;28;20075;-66
2023/09/09 09:35:29;;;;;;;0.00;0.00;;;;;;;32.46;52.20;101770.03;5077604;28;20492;-67
2023/09/09 09:38:00;;;;;;;0.00;0.00;;;;;;;32.43;52.87;101764.34;5075933;28;20067;-67
2023/09/09 09:40:27;;;;;;;0.00;0.00;;;;;;;32.03;53.69;101757.84;5074864;28;20060;-66
2023/09/09 09:42:53;;;;;;;0.00;0.00;;;;;;;32.29;51.80;101759.13;5073437;28;20036;-67
2023/09/09 09:45:23;;;;;;;0.00;0.00;;;;;;;32.89;51.59;101761.00;5079952;28;20798;-66
2023/09/09 09:47:50;;;;;;;0.00;0.00;;;;;;;32.77;51.04;101761.84;5062806;28;20503;-67
2023/09/09 09:50:18;;;;;;;0.00;0.00;;;;;;;32.38;51.50;101751.47;5081221;28;20135;-67
2023/09/09 09:52:48;;;;;;;0.00;0.00;;;;;;;32.63;50.23;101753.06;5079381;28;20058;-66
2023/09/09 09:55:17;;;;;;;;;;;;;;;33.37;48.54;101752.44;5073645;28;20527;-67
2023/09/09 09:57:44;;;;;;;0.00;0.00;;;;;;;33.02;50.08;101754.25;5065041;28;20372;-68
2023/09/09 10:00:11;;;;;;;0.00;0.00;;;;;;;33.38;48.88;101756.84;5072935;28;20036;-66
2023/09/09 10:02:36;;;;;;;0.00;0.00;;;;;;;32.72;51.28;101756.53;5090521;28;20024;-65
2023/09/09 10:05:02;;;;;;;0.00;0.00;;;;;;;33.05;50.60;101747.97;5090681;28;20410;-66
2023/09/09 10:07:31;;;;;;;0.00;0.00;;;;;;;33.87;48.44;101751.78;5088812;28;20164;-65
2023/09/09 10:10:07;;;;;;;0.00;0.00;;;;;;;34.10;47.51;101751.97;5052049;28;20051;-65
2023/09/09 10:12:38;;;;;;;0.00;0.00;;;;;;;34.28;46.31;101744.84;5066880;28;20097;-66
2023/09/09 10:15:05;;;;;;;0.00;0.00;;;;;;;34.67;46.14;101754.13;5067894;28;20066;-66
2023/09/09 10:17:32;;;;;;;0.00;0.00;;;;;;;34.57;45.41;101749.91;5069675;28;20103;-65
2023/09/09 10:19:58;;;;;;;0.00;0.00;;;;;;;34.11;46.49;101745.22;5070288;28;20043;-67
2023/09/09 10:22:25;;;;;;;0.00;0.00;;;;;;;34.40;45.40;101748.31;5069686;28;20083;-66
2023/09/09 10:24:52;;;;;;;0.00;0.00;;;;;;;33.79;45.22;101741.59;5069865;28;20134;-65
2023/09/09 10:27:19;;;;;;;0.00;0.00;;;;;;;34.41;43.60;101746.34;5068873;28;20038;-65
2023/09/09 10:29:47;;;;;;;0.00;0.00;;;;;;;34.01;43.94;101745.75;5069370;28;20045;-67
2023/09/09 10:32:15;;;;;;;0.00;0.00;;;;;;;33.96;43.95;101748.81;5069829;28;20060;-64
2023/09/09 10:34:43;;;;;;;0.00;0.00;;;;;;;34.11;44.35;101746.03;5069573;28;20032;-66
2023/09/09 10:37:09;;;;;;;0.00;0.00;;;;;;;33.78;44.53;101751.16;5069500;28;20035;-66
2023/09/09 10:39:35;;;;;;;0.00;0.00;;;;;;;32.72;46.29;101753.75;5069582;28;20032;-65
2023/09/09 10:42:03;;;;;;;0.00;0.00;;;;;;;34.36;44.00;101743.81;5069689;28;20440;-67
2023/09/09 10:44:29;;;;;;;0.00;0.00;;;;;;;33.80;43.68;101740.47;5078906;28;20023;-65
2023/09/09 10:46:58;;;;;;;0.00;0.00;;;;;;;34.30;42.63;101748.88;5089920;28;20081;-66
2023/09/09 10:49:26;;;;;;;0.00;0.00;;;;;;;32.79;44.07;101745.59;5071471;28;20036;-67
2023/09/09 10:51:52;;;;;;;0.00;0.00;;;;;;;31.99;45.65;101750.22;5080822;28;20066;-66
2023/09/09 10:54:18;;;;;;;0.00;0.00;;;;;;;31.95;46.46;101749.28;5069390;28;20441;-67
2023/09/09 10:56:49;;;;;;;0.00;0.00;;;;;;;33.82;42.84;101742.88;5074884;28;20039;-66
2023/09/09 10:59:19;;;;;;;0.00;0.00;;;;;;;34.45;41.12;101745.25;5086578;28;20025;-67
2023/09/09 11:01:46;;;;;;;0.00;0.00;;;;;;;35.14;40.03;101757.53;5078241;28;20032;-67
2023/09/09 11:04:23;;;;;;;0.00;0.00;;;;;;;35.05;40.34;101748.53;5082694;28;20048;-66
2023/09/09 11:07:03;;;;;;;0.00;0.00;;;;;;;34.74;40.45;101748.66;5072883;28;20426;-66
2023/09/09 11:09:30;;;;;;;0.00;0.00;;;;;;;35.43;38.59;101750.47;5069409;28;20036;-67
2023/09/09 11:11:55;;;;;;;0.00;0.00;;;;;;;35.36;39.07;101745.59;5070482;28;20052;-66
2023/09/09 11:14:21;;;;;;;0.00;0.00;;;;;;;34.45;40.74;101748.03;5072972;28;20024;-67
2023/09/09 11:16:54;;;;;;;0.00;0.00;;;;;;;35.77;37.97;101741.94;5054986;28;20041;-66
2023/09/09 11:19:22;;;;;;;0.00;0.00;;;;;;;35.74;38.92;101739.88;5072927;28;20570;-66